sensor_id;sensor_type;location;lat;lon;timestamp;P1;durP1;ratioP1;P2;durP2;ratioP2
54464;SDS011;40374;49.480;20.016;2022-07-22T00:00:20;29.25;;;12.23;;
54464;SDS011;40374;49.480;20.016;2022-07-22T00:03:01;25.40;;;11.45;;
54464;SDS011;40374;49.480;20.016;2022-07-22T00:05:29;31.67;;;11.18;;
54464;SDS011;40374;49.480;20.016;2022-07-22T00:07:57;25.38;;;9.90;;
54464;SDS011;40374;49.480;20.016;2022-07-22T00:10:24;23.85;;;11.02;;
54464;SDS011;40374;49.480;20.016;2022-07-22T00:12:52;27.35;;;10.50;;
54464;SDS011;40374;49.480;20.016;2022-07-22T00:15:19;27.80;;;10.88;;
54464;SDS011;40374;49.480;20.016;2022-07-22T00:17:47;19.13;;;10.40;;
54464;SDS011;40374;49.480;20.016;2022-07-22T00:20:15;19.17;;;10.68;;
54464;SDS011;40374;49.480;20.016;2022-07-22T00:22:42;18.65;;;12.02;;
54464;SDS011;40374;49.480;20.016;2022-07-22T00:25:10;24.67;;;11.00;;
54464;SDS011;40374;49.480;20.016;2022-07-22T00:27:37;18.63;;;10.27;;
54464;SDS011;40374;49.480;20.016;2022-07-22T00:30:05;25.73;;;12.82;;
54464;SDS011;40374;49.480;20.016;2022-07-22T00:32:35;25.05;;;12.43;;
54464;SDS011;40374;49.480;20.016;2022-07-22T00:35:03;19.10;;;11.13;;
54464;SDS011;40374;49.480;20.016;2022-07-22T00:37:33;23.45;;;10.45;;
54464;SDS011;40374;49.480;20.016;2022-07-22T00:40:01;21.02;;;10.95;;
54464;SDS011;40374;49.480;20.016;2022-07-22T00:42:29;22.48;;;12.23;;
54464;SDS011;40374;49.480;20.016;2022-07-22T00:44:57;22.80;;;11.13;;
54464;SDS011;40374;49.480;20.016;2022-07-22T00:47:26;24.00;;;11.38;;
54464;SDS011;40374;49.480;20.016;2022-07-22T00:49:54;22.20;;;11.02;;
54464;SDS011;40374;49.480;20.016;2022-07-22T00:52:22;17.98;;;10.32;;
54464;SDS011;40374;49.480;20.016;2022-07-22T00:54:50;22.98;;;9.82;;
54464;SDS011;40374;49.480;20.016;2022-07-22T00:57:18;19.48;;;10.77;;
54464;SDS011;40374;49.480;20.016;2022-07-22T00:59:46;29.73;;;11.07;;
54464;SDS011;40374;49.480;20.016;2022-07-22T01:02:14;20.50;;;11.73;;
54464;SDS011;40374;49.480;20.016;2022-07-22T01:04:43;19.55;;;11.38;;
54464;SDS011;40374;49.480;20.016;2022-07-22T01:07:13;22.42;;;10.57;;
54464;SDS011;40374;49.480;20.016;2022-07-22T01:09:44;27.63;;;9.85;;
54464;SDS011;40374;49.480;20.016;2022-07-22T01:12:13;20.58;;;12.50;;
54464;SDS011;40374;49.480;20.016;2022-07-22T01:14:41;22.38;;;11.68;;
54464;SDS011;40374;49.480;20.016;2022-07-22T01:17:08;19.50;;;10.15;;
54464;SDS011;40374;49.480;20.016;2022-07-22T01:19:37;18.60;;;9.85;;
54464;SDS011;40374;49.480;20.016;2022-07-22T01:22:05;20.88;;;10.27;;
54464;SDS011;40374;49.480;20.016;2022-07-22T01:24:33;23.83;;;10.05;;
54464;SDS011;40374;49.480;20.016;2022-07-22T01:27:01;17.67;;;9.38;;
54464;SDS011;40374;49.480;20.016;2022-07-22T01:29:29;16.88;;;9.85;;
54464;SDS011;40374;49.480;20.016;2022-07-22T01:31:57;21.73;;;10.40;;
54464;SDS011;40374;49.480;20.016;2022-07-22T01:34:24;24.05;;;12.02;;
54464;SDS011;40374;49.480;20.016;2022-07-22T01:36:52;23.10;;;10.73;;
54464;SDS011;40374;49.480;20.016;2022-07-22T01:39:19;23.33;;;11.05;;
54464;SDS011;40374;49.480;20.016;2022-07-22T01:41:48;24.05;;;11.27;;
54464;SDS011;40374;49.480;20.016;2022-07-22T01:44:16;17.27;;;10.52;;
54464;SDS011;40374;49.480;20.016;2022-07-22T01:46:43;15.05;;;9.63;;
54464;SDS011;40374;49.480;20.016;2022-07-22T01:49:11;19.08;;;10.13;;
54464;SDS011;40374;49.480;20.016;2022-07-22T01:51:39;25.95;;;10.98;;
54464;SDS011;40374;49.480;20.016;2022-07-22T01:54:06;16.35;;;10.35;;
54464;SDS011;40374;49.480;20.016;2022-07-22T01:56:34;22.20;;;11.18;;
54464;SDS011;40374;49.480;20.016;2022-07-22T01:59:02;18.83;;;11.20;;
54464;SDS011;40374;49.480;20.016;2022-07-22T02:01:30;25.27;;;11.35;;
54464;SDS011;40374;49.480;20.016;2022-07-22T02:04:00;20.40;;;11.73;;
54464;SDS011;40374;49.480;20.016;2022-07-22T02:06:28;24.20;;;11.85;;
54464;SDS011;40374;49.480;20.016;2022-07-22T02:08:58;27.65;;;13.98;;
54464;SDS011;40374;49.480;20.016;2022-07-22T02:11:34;24.27;;;11.20;;
54464;SDS011;40374;49.480;20.016;2022-07-22T02:14:01;22.33;;;11.20;;
54464;SDS011;40374;49.480;20.016;2022-07-22T02:16:29;29.13;;;12.45;;
54464;SDS011;40374;49.480;20.016;2022-07-22T02:18:57;21.02;;;11.88;;
54464;SDS011;40374;49.480;20.016;2022-07-22T02:21:26;18.40;;;10.50;;
54464;SDS011;40374;49.480;20.016;2022-07-22T02:23:58;26.08;;;10.60;;
54464;SDS011;40374;49.480;20.016;2022-07-22T02:26:26;22.90;;;12.50;;
54464;SDS011;40374;49.480;20.016;2022-07-22T02:28:53;18.90;;;10.90;;
54464;SDS011;40374;49.480;20.016;2022-07-22T02:31:22;23.83;;;10.57;;
54464;SDS011;40374;49.480;20.016;2022-07-22T02:33:50;19.38;;;10.15;;
54464;SDS011;40374;49.480;20.016;2022-07-22T02:36:17;19.08;;;9.65;;
54464;SDS011;40374;49.480;20.016;2022-07-22T02:38:46;21.67;;;9.80;;
54464;SDS011;40374;49.480;20.016;2022-07-22T02:41:14;15.32;;;9.93;;
54464;SDS011;40374;49.480;20.016;2022-07-22T02:43:49;19.80;;;10.25;;
54464;SDS011;40374;49.480;20.016;2022-07-22T02:46:18;17.95;;;10.40;;
54464;SDS011;40374;49.480;20.016;2022-07-22T02:48:45;23.45;;;11.30;;
54464;SDS011;40374;49.480;20.016;2022-07-22T02:51:16;25.33;;;11.05;;
54464;SDS011;40374;49.480;20.016;2022-07-22T02:53:44;18.85;;;10.32;;
54464;SDS011;40374;49.480;20.016;2022-07-22T02:56:12;19.17;;;10.02;;
54464;SDS011;40374;49.480;20.016;2022-07-22T02:58:40;19.85;;;9.65;;
54464;SDS011;40374;49.480;20.016;2022-07-22T03:01:08;15.20;;;9.90;;
54464;SDS011;40374;49.480;20.016;2022-07-22T03:03:45;18.17;;;9.57;;
54464;SDS011;40374;49.480;20.016;2022-07-22T03:06:13;19.35;;;10.30;;
54464;SDS011;40374;49.480;20.016;2022-07-22T03:08:45;15.27;;;9.25;;
54464;SDS011;40374;49.480;20.016;2022-07-22T03:11:14;18.83;;;10.88;;
54464;SDS011;40374;49.480;20.016;2022-07-22T03:13:41;21.38;;;10.43;;
54464;SDS011;40374;49.480;20.016;2022-07-22T03:16:09;18.70;;;9.57;;
54464;SDS011;40374;49.480;20.016;2022-07-22T03:18:37;20.73;;;9.02;;
54464;SDS011;40374;49.480;20.016;2022-07-22T03:21:05;20.27;;;11.07;;
54464;SDS011;40374;49.480;20.016;2022-07-22T03:23:32;23.90;;;10.10;;
54464;SDS011;40374;49.480;20.016;2022-07-22T03:26:00;19.73;;;9.27;;
54464;SDS011;40374;49.480;20.016;2022-07-22T03:28:28;23.75;;;11.05;;
54464;SDS011;40374;49.480;20.016;2022-07-22T03:30:55;17.88;;;10.80;;
54464;SDS011;40374;49.480;20.016;2022-07-22T03:33:23;23.95;;;11.70;;
54464;SDS011;40374;49.480;20.016;2022-07-22T03:35:51;19.15;;;11.60;;
54464;SDS011;40374;49.480;20.016;2022-07-22T03:38:19;23.55;;;11.85;;
54464;SDS011;40374;49.480;20.016;2022-07-22T03:40:47;23.80;;;11.73;;
54464;SDS011;40374;49.480;20.016;2022-07-22T03:43:15;18.40;;;11.40;;
54464;SDS011;40374;49.480;20.016;2022-07-22T03:45:42;17.95;;;10.73;;
54464;SDS011;40374;49.480;20.016;2022-07-22T03:48:10;20.02;;;10.75;;
54464;SDS011;40374;49.480;20.016;2022-07-22T03:50:39;19.17;;;10.50;;
54464;SDS011;40374;49.480;20.016;2022-07-22T03:53:07;26.70;;;10.77;;
54464;SDS011;40374;49.480;20.016;2022-07-22T03:55:37;24.63;;;11.70;;
54464;SDS011;40374;49.480;20.016;2022-07-22T03:58:06;19.15;;;11.38;;
54464;SDS011;40374;49.480;20.016;2022-07-22T04:00:33;25.00;;;11.20;;
54464;SDS011;40374;49.480;20.016;2022-07-22T04:03:04;29.25;;;13.38;;
54464;SDS011;40374;49.480;20.016;2022-07-22T04:05:54;18.15;;;11.02;;
54464;SDS011;40374;49.480;20.016;2022-07-22T04:08:37;27.90;;;14.48;;
54464;SDS011;40374;49.480;20.016;2022-07-22T04:11:05;40.55;;;20.40;;
54464;SDS011;40374;49.480;20.016;2022-07-22T04:13:32;37.17;;;17.15;;
54464;SDS011;40374;49.480;20.016;2022-07-22T04:16:00;63.78;;;25.02;;
54464;SDS011;40374;49.480;20.016;2022-07-22T04:18:31;29.08;;;13.93;;
54464;SDS011;40374;49.480;20.016;2022-07-22T04:20:59;25.90;;;14.30;;
54464;SDS011;40374;49.480;20.016;2022-07-22T04:23:32;21.13;;;11.55;;
54464;SDS011;40374;49.480;20.016;2022-07-22T04:26:14;23.58;;;13.43;;
54464;SDS011;40374;49.480;20.016;2022-07-22T04:28:42;32.83;;;14.73;;
54464;SDS011;40374;49.480;20.016;2022-07-22T04:31:09;32.40;;;12.95;;
54464;SDS011;40374;49.480;20.016;2022-07-22T04:33:40;21.40;;;10.80;;
54464;SDS011;40374;49.480;20.016;2022-07-22T04:36:08;19.80;;;11.02;;
54464;SDS011;40374;49.480;20.016;2022-07-22T04:38:36;23.08;;;10.48;;
54464;SDS011;40374;49.480;20.016;2022-07-22T04:41:07;28.20;;;11.35;;
54464;SDS011;40374;49.480;20.016;2022-07-22T04:43:35;26.50;;;12.45;;
54464;SDS011;40374;49.480;20.016;2022-07-22T04:46:05;24.83;;;11.98;;
54464;SDS011;40374;49.480;20.016;2022-07-22T04:48:35;42.30;;;14.23;;
54464;SDS011;40374;49.480;20.016;2022-07-22T04:51:02;19.40;;;11.10;;
54464;SDS011;40374;49.480;20.016;2022-07-22T04:53:31;18.25;;;10.80;;
54464;SDS011;40374;49.480;20.016;2022-07-22T04:56:18;21.90;;;11.70;;
54464;SDS011;40374;49.480;20.016;2022-07-22T04:58:46;20.60;;;11.07;;
54464;SDS011;40374;49.480;20.016;2022-07-22T05:01:13;36.13;;;17.15;;
54464;SDS011;40374;49.480;20.016;2022-07-22T05:03:43;48.40;;;17.60;;
54464;SDS011;40374;49.480;20.016;2022-07-22T05:06:11;43.65;;;17.90;;
54464;SDS011;40374;49.480;20.016;2022-07-22T05:08:42;53.60;;;27.48;;
54464;SDS011;40374;49.480;20.016;2022-07-22T05:11:11;30.40;;;16.30;;
54464;SDS011;40374;49.480;20.016;2022-07-22T05:13:39;31.65;;;13.82;;
54464;SDS011;40374;49.480;20.016;2022-07-22T05:16:07;26.35;;;13.93;;
54464;SDS011;40374;49.480;20.016;2022-07-22T05:18:37;16.20;;;10.25;;
54464;SDS011;40374;49.480;20.016;2022-07-22T05:21:06;20.60;;;10.77;;
54464;SDS011;40374;49.480;20.016;2022-07-22T05:23:34;27.52;;;12.05;;
54464;SDS011;40374;49.480;20.016;2022-07-22T05:26:03;33.00;;;12.90;;
54464;SDS011;40374;49.480;20.016;2022-07-22T05:28:31;23.73;;;12.32;;
54464;SDS011;40374;49.480;20.016;2022-07-22T05:31:00;30.42;;;14.48;;
54464;SDS011;40374;49.480;20.016;2022-07-22T05:33:30;23.92;;;12.57;;
54464;SDS011;40374;49.480;20.016;2022-07-22T05:36:24;36.67;;;12.50;;
54464;SDS011;40374;49.480;20.016;2022-07-22T05:38:53;30.83;;;12.45;;
54464;SDS011;40374;49.480;20.016;2022-07-22T05:41:21;21.05;;;10.35;;
54464;SDS011;40374;49.480;20.016;2022-07-22T05:43:50;24.10;;;11.57;;
54464;SDS011;40374;49.480;20.016;2022-07-22T05:46:18;33.90;;;11.48;;
54464;SDS011;40374;49.480;20.016;2022-07-22T05:48:47;24.88;;;10.93;;
54464;SDS011;40374;49.480;20.016;2022-07-22T05:51:15;38.72;;;10.07;;
54464;SDS011;40374;49.480;20.016;2022-07-22T05:53:43;22.63;;;10.57;;
54464;SDS011;40374;49.480;20.016;2022-07-22T05:56:12;23.30;;;10.93;;
54464;SDS011;40374;49.480;20.016;2022-07-22T05:58:40;15.60;;;9.13;;
54464;SDS011;40374;49.480;20.016;2022-07-22T06:01:11;19.52;;;9.50;;
54464;SDS011;40374;49.480;20.016;2022-07-22T06:03:39;21.20;;;8.55;;
54464;SDS011;40374;49.480;20.016;2022-07-22T06:06:07;21.35;;;9.10;;
54464;SDS011;40374;49.480;20.016;2022-07-22T06:08:36;19.45;;;8.90;;
54464;SDS011;40374;49.480;20.016;2022-07-22T06:11:06;20.58;;;8.45;;
54464;SDS011;40374;49.480;20.016;2022-07-22T06:13:33;13.98;;;8.13;;
54464;SDS011;40374;49.480;20.016;2022-07-22T06:16:01;20.80;;;8.88;;
54464;SDS011;40374;49.480;20.016;2022-07-22T06:18:30;16.15;;;7.97;;
54464;SDS011;40374;49.480;20.016;2022-07-22T06:20:57;17.00;;;8.05;;
54464;SDS011;40374;49.480;20.016;2022-07-22T06:23:26;20.80;;;8.77;;
54464;SDS011;40374;49.480;20.016;2022-07-22T06:25:53;15.52;;;8.63;;
54464;SDS011;40374;49.480;20.016;2022-07-22T06:28:28;26.30;;;8.82;;
54464;SDS011;40374;49.480;20.016;2022-07-22T06:30:56;19.63;;;8.60;;
54464;SDS011;40374;49.480;20.016;2022-07-22T06:33:25;16.75;;;8.23;;
54464;SDS011;40374;49.480;20.016;2022-07-22T06:35:52;16.33;;;8.23;;
54464;SDS011;40374;49.480;20.016;2022-07-22T06:38:20;15.35;;;8.30;;
54464;SDS011;40374;49.480;20.016;2022-07-22T06:41:28;21.35;;;8.52;;
54464;SDS011;40374;49.480;20.016;2022-07-22T06:44:05;18.70;;;8.13;;
54464;SDS011;40374;49.480;20.016;2022-07-22T06:46:50;11.70;;;7.22;;
54464;SDS011;40374;49.480;20.016;2022-07-22T06:49:21;23.02;;;7.95;;
54464;SDS011;40374;49.480;20.016;2022-07-22T06:51:51;16.45;;;8.63;;
54464;SDS011;40374;49.480;20.016;2022-07-22T06:54:19;17.80;;;8.77;;
54464;SDS011;40374;49.480;20.016;2022-07-22T06:56:49;12.27;;;7.82;;
54464;SDS011;40374;49.480;20.016;2022-07-22T06:59:21;19.92;;;7.43;;
54464;SDS011;40374;49.480;20.016;2022-07-22T07:01:48;26.80;;;8.07;;
54464;SDS011;40374;49.480;20.016;2022-07-22T07:04:18;16.75;;;7.50;;
54464;SDS011;40374;49.480;20.016;2022-07-22T07:06:46;16.35;;;7.55;;
54464;SDS011;40374;49.480;20.016;2022-07-22T07:09:40;17.88;;;6.80;;
54464;SDS011;40374;49.480;20.016;2022-07-22T07:12:21;20.25;;;7.80;;
54464;SDS011;40374;49.480;20.016;2022-07-22T07:15:09;21.30;;;7.28;;
54464;SDS011;40374;49.480;20.016;2022-07-22T07:18:01;17.05;;;7.15;;
54464;SDS011;40374;49.480;20.016;2022-07-22T07:20:29;17.05;;;6.68;;
54464;SDS011;40374;49.480;20.016;2022-07-22T07:22:59;17.23;;;7.07;;
54464;SDS011;40374;49.480;20.016;2022-07-22T07:25:31;17.30;;;6.78;;
54464;SDS011;40374;49.480;20.016;2022-07-22T07:27:59;26.65;;;7.88;;
54464;SDS011;40374;49.480;20.016;2022-07-22T07:30:50;14.88;;;6.78;;
54464;SDS011;40374;49.480;20.016;2022-07-22T07:33:18;27.20;;;7.40;;
54464;SDS011;40374;49.480;20.016;2022-07-22T07:35:46;11.65;;;7.28;;
54464;SDS011;40374;49.480;20.016;2022-07-22T07:38:18;37.40;;;8.15;;
54464;SDS011;40374;49.480;20.016;2022-07-22T07:40:48;20.67;;;7.90;;
54464;SDS011;40374;49.480;20.016;2022-07-22T07:43:16;20.50;;;6.95;;
54464;SDS011;40374;49.480;20.016;2022-07-22T07:45:44;20.95;;;7.22;;
54464;SDS011;40374;49.480;20.016;2022-07-22T07:48:11;16.13;;;7.18;;
54464;SDS011;40374;49.480;20.016;2022-07-22T07:50:39;23.55;;;6.82;;
54464;SDS011;40374;49.480;20.016;2022-07-22T07:53:06;21.05;;;6.97;;
54464;SDS011;40374;49.480;20.016;2022-07-22T07:55:35;22.63;;;7.25;;
54464;SDS011;40374;49.480;20.016;2022-07-22T07:58:05;18.90;;;6.47;;
54464;SDS011;40374;49.480;20.016;2022-07-22T08:00:33;16.58;;;6.43;;
54464;SDS011;40374;49.480;20.016;2022-07-22T08:03:02;15.80;;;6.75;;
54464;SDS011;40374;49.480;20.016;2022-07-22T08:05:34;16.20;;;6.53;;
54464;SDS011;40374;49.480;20.016;2022-07-22T08:08:04;17.38;;;6.75;;
54464;SDS011;40374;49.480;20.016;2022-07-22T08:10:42;29.60;;;7.13;;
54464;SDS011;40374;49.480;20.016;2022-07-22T08:14:05;18.23;;;6.57;;
54464;SDS011;40374;49.480;20.016;2022-07-22T08:16:53;18.77;;;6.63;;
54464;SDS011;40374;49.480;20.016;2022-07-22T08:19:21;14.93;;;6.72;;
54464;SDS011;40374;49.480;20.016;2022-07-22T08:21:51;21.10;;;6.43;;
54464;SDS011;40374;49.480;20.016;2022-07-22T08:24:28;26.95;;;7.85;;
54464;SDS011;40374;49.480;20.016;2022-07-22T08:26:59;29.30;;;6.90;;
54464;SDS011;40374;49.480;20.016;2022-07-22T08:29:26;16.95;;;6.35;;
54464;SDS011;40374;49.480;20.016;2022-07-22T08:31:54;9.50;;;6.10;;
54464;SDS011;40374;49.480;20.016;2022-07-22T08:34:22;15.48;;;6.85;;
54464;SDS011;40374;49.480;20.016;2022-07-22T08:36:50;13.57;;;6.05;;
54464;SDS011;40374;49.480;20.016;2022-07-22T08:39:18;16.67;;;6.60;;
54464;SDS011;40374;49.480;20.016;2022-07-22T08:41:50;11.65;;;5.82;;
54464;SDS011;40374;49.480;20.016;2022-07-22T08:44:18;18.08;;;6.75;;
54464;SDS011;40374;49.480;20.016;2022-07-22T08:46:47;21.20;;;6.15;;
54464;SDS011;40374;49.480;20.016;2022-07-22T08:49:20;15.90;;;5.65;;
54464;SDS011;40374;49.480;20.016;2022-07-22T08:51:55;11.75;;;5.47;;
54464;SDS011;40374;49.480;20.016;2022-07-22T08:54:26;12.55;;;6.55;;
54464;SDS011;40374;49.480;20.016;2022-07-22T08:56:54;19.88;;;6.13;;
54464;SDS011;40374;49.480;20.016;2022-07-22T08:59:23;12.90;;;6.72;;
54464;SDS011;40374;49.480;20.016;2022-07-22T09:02:01;14.60;;;5.97;;
54464;SDS011;40374;49.480;20.016;2022-07-22T09:07:49;14.82;;;6.88;;
54464;SDS011;40374;49.480;20.016;2022-07-22T09:10:29;20.40;;;6.63;;
54464;SDS011;40374;49.480;20.016;2022-07-22T09:13:17;15.80;;;5.65;;
54464;SDS011;40374;49.480;20.016;2022-07-22T09:15:51;24.08;;;6.32;;
54464;SDS011;40374;49.480;20.016;2022-07-22T09:18:48;16.13;;;5.57;;
54464;SDS011;40374;49.480;20.016;2022-07-22T09:21:42;13.18;;;5.55;;
54464;SDS011;40374;49.480;20.016;2022-07-22T09:24:27;15.63;;;5.55;;
54464;SDS011;40374;49.480;20.016;2022-07-22T09:27:22;49.90;;;8.13;;
54464;SDS011;40374;49.480;20.016;2022-07-22T09:30:27;15.43;;;5.35;;
54464;SDS011;40374;49.480;20.016;2022-07-22T09:33:06;15.32;;;5.93;;
54464;SDS011;40374;49.480;20.016;2022-07-22T09:35:39;14.05;;;6.38;;
54464;SDS011;40374;49.480;20.016;2022-07-22T09:38:13;34.55;;;7.88;;
54464;SDS011;40374;49.480;20.016;2022-07-22T09:40:46;14.52;;;5.30;;
54464;SDS011;40374;49.480;20.016;2022-07-22T09:43:18;23.73;;;5.47;;
54464;SDS011;40374;49.480;20.016;2022-07-22T09:45:54;10.35;;;5.32;;
54464;SDS011;40374;49.480;20.016;2022-07-22T09:48:55;22.48;;;5.88;;
54464;SDS011;40374;49.480;20.016;2022-07-22T09:51:45;11.35;;;5.28;;
54464;SDS011;40374;49.480;20.016;2022-07-22T09:54:22;16.13;;;5.72;;
54464;SDS011;40374;49.480;20.016;2022-07-22T09:56:51;11.45;;;5.55;;
54464;SDS011;40374;49.480;20.016;2022-07-22T09:59:18;16.10;;;5.80;;
54464;SDS011;40374;49.480;20.016;2022-07-22T10:01:56;13.70;;;7.07;;
54464;SDS011;40374;49.480;20.016;2022-07-22T10:04:26;19.15;;;6.10;;
54464;SDS011;40374;49.480;20.016;2022-07-22T10:06:58;15.05;;;5.90;;
54464;SDS011;40374;49.480;20.016;2022-07-22T10:09:33;10.80;;;6.35;;
54464;SDS011;40374;49.480;20.016;2022-07-22T10:12:03;20.45;;;6.45;;
54464;SDS011;40374;49.480;20.016;2022-07-22T10:14:31;16.48;;;6.90;;
54464;SDS011;40374;49.480;20.016;2022-07-22T10:17:01;22.63;;;6.00;;
54464;SDS011;40374;49.480;20.016;2022-07-22T10:19:34;16.00;;;6.43;;
54464;SDS011;40374;49.480;20.016;2022-07-22T10:22:02;19.50;;;6.30;;
54464;SDS011;40374;49.480;20.016;2022-07-22T10:24:30;12.75;;;6.25;;
54464;SDS011;40374;49.480;20.016;2022-07-22T10:26:59;15.30;;;6.35;;
54464;SDS011;40374;49.480;20.016;2022-07-22T10:29:32;22.08;;;5.97;;
54464;SDS011;40374;49.480;20.016;2022-07-22T10:35:18;12.18;;;5.80;;
54464;SDS011;40374;49.480;20.016;2022-07-22T10:45:31;11.38;;;5.40;;
54464;SDS011;40374;49.480;20.016;2022-07-22T10:48:01;12.15;;;5.43;;
54464;SDS011;40374;49.480;20.016;2022-07-22T10:53:08;16.40;;;5.72;;
54464;SDS011;40374;49.480;20.016;2022-07-22T10:55:38;10.25;;;4.88;;
54464;SDS011;40374;49.480;20.016;2022-07-22T11:01:08;10.10;;;4.95;;
54464;SDS011;40374;49.480;20.016;2022-07-22T11:03:40;16.38;;;6.30;;
54464;SDS011;40374;49.480;20.016;2022-07-22T11:09:10;14.15;;;6.05;;
54464;SDS011;40374;49.480;20.016;2022-07-22T11:11:52;18.17;;;5.57;;
54464;SDS011;40374;49.480;20.016;2022-07-22T11:17:00;22.35;;;5.00;;
54464;SDS011;40374;49.480;20.016;2022-07-22T11:19:32;11.98;;;5.35;;
54464;SDS011;40374;49.480;20.016;2022-07-22T11:22:04;20.05;;;5.63;;
54464;SDS011;40374;49.480;20.016;2022-07-22T11:24:34;18.23;;;5.75;;
54464;SDS011;40374;49.480;20.016;2022-07-22T11:27:06;17.73;;;5.75;;
54464;SDS011;40374;49.480;20.016;2022-07-22T11:29:40;9.95;;;4.72;;
54464;SDS011;40374;49.480;20.016;2022-07-22T11:32:14;9.73;;;5.07;;
54464;SDS011;40374;49.480;20.016;2022-07-22T11:34:43;13.70;;;5.40;;
54464;SDS011;40374;49.480;20.016;2022-07-22T11:37:15;8.63;;;5.57;;
54464;SDS011;40374;49.480;20.016;2022-07-22T11:39:45;11.52;;;6.32;;
54464;SDS011;40374;49.480;20.016;2022-07-22T11:42:13;15.65;;;5.22;;
54464;SDS011;40374;49.480;20.016;2022-07-22T11:44:41;19.52;;;5.93;;
54464;SDS011;40374;49.480;20.016;2022-07-22T11:47:09;12.35;;;5.05;;
54464;SDS011;40374;49.480;20.016;2022-07-22T11:49:37;13.80;;;6.18;;
54464;SDS011;40374;49.480;20.016;2022-07-22T11:52:07;8.82;;;4.97;;
54464;SDS011;40374;49.480;20.016;2022-07-22T11:54:40;8.93;;;5.82;;
54464;SDS011;40374;49.480;20.016;2022-07-22T11:57:09;12.90;;;5.60;;
54464;SDS011;40374;49.480;20.016;2022-07-22T11:59:38;5.85;;;4.90;;
54464;SDS011;40374;49.480;20.016;2022-07-22T12:02:06;9.00;;;5.35;;
54464;SDS011;40374;49.480;20.016;2022-07-22T12:04:37;10.55;;;5.43;;
54464;SDS011;40374;49.480;20.016;2022-07-22T12:07:05;10.25;;;5.72;;
54464;SDS011;40374;49.480;20.016;2022-07-22T12:09:35;9.55;;;4.78;;
54464;SDS011;40374;49.480;20.016;2022-07-22T12:12:03;8.63;;;5.07;;
54464;SDS011;40374;49.480;20.016;2022-07-22T12:14:32;6.95;;;5.07;;
54464;SDS011;40374;49.480;20.016;2022-07-22T12:17:05;14.32;;;5.22;;
54464;SDS011;40374;49.480;20.016;2022-07-22T12:19:37;11.30;;;4.93;;
54464;SDS011;40374;49.480;20.016;2022-07-22T12:22:11;12.50;;;5.47;;
54464;SDS011;40374;49.480;20.016;2022-07-22T12:24:51;14.30;;;5.72;;
54464;SDS011;40374;49.480;20.016;2022-07-22T12:27:26;8.60;;;5.07;;
54464;SDS011;40374;49.480;20.016;2022-07-22T12:29:53;8.43;;;4.60;;
54464;SDS011;40374;49.480;20.016;2022-07-22T12:34:55;17.60;;;5.22;;
54464;SDS011;40374;49.480;20.016;2022-07-22T12:42:40;15.77;;;5.32;;
54464;SDS011;40374;49.480;20.016;2022-07-22T12:45:12;10.07;;;5.05;;
54464;SDS011;40374;49.480;20.016;2022-07-22T12:47:55;11.35;;;4.65;;
54464;SDS011;40374;49.480;20.016;2022-07-22T12:50:32;10.13;;;4.88;;
54464;SDS011;40374;49.480;20.016;2022-07-22T12:53:02;13.00;;;5.07;;
54464;SDS011;40374;49.480;20.016;2022-07-22T12:55:48;13.95;;;5.07;;
54464;SDS011;40374;49.480;20.016;2022-07-22T12:58:24;19.48;;;5.40;;
54464;SDS011;40374;49.480;20.016;2022-07-22T13:00:55;8.40;;;5.18;;
54464;SDS011;40374;49.480;20.016;2022-07-22T13:03:24;10.52;;;5.15;;
54464;SDS011;40374;49.480;20.016;2022-07-22T13:05:56;11.88;;;4.85;;
54464;SDS011;40374;49.480;20.016;2022-07-22T13:08:25;15.98;;;5.43;;
54464;SDS011;40374;49.480;20.016;2022-07-22T13:11:07;10.35;;;5.03;;
54464;SDS011;40374;49.480;20.016;2022-07-22T13:13:35;7.03;;;4.78;;
54464;SDS011;40374;49.480;20.016;2022-07-22T13:16:02;8.32;;;4.63;;
54464;SDS011;40374;49.480;20.016;2022-07-22T13:18:30;11.60;;;5.13;;
54464;SDS011;40374;49.480;20.016;2022-07-22T13:20:58;8.57;;;4.90;;
54464;SDS011;40374;49.480;20.016;2022-07-22T13:23:25;10.02;;;4.82;;
54464;SDS011;40374;49.480;20.016;2022-07-22T13:25:53;14.07;;;4.82;;
54464;SDS011;40374;49.480;20.016;2022-07-22T13:28:22;7.90;;;4.70;;
54464;SDS011;40374;49.480;20.016;2022-07-22T13:30:50;11.45;;;5.38;;
54464;SDS011;40374;49.480;20.016;2022-07-22T13:33:17;10.18;;;4.70;;
54464;SDS011;40374;49.480;20.016;2022-07-22T13:35:45;7.85;;;4.35;;
54464;SDS011;40374;49.480;20.016;2022-07-22T13:38:13;15.60;;;5.13;;
54464;SDS011;40374;49.480;20.016;2022-07-22T13:40:43;12.30;;;5.47;;
54464;SDS011;40374;49.480;20.016;2022-07-22T13:43:19;8.50;;;4.97;;
54464;SDS011;40374;49.480;20.016;2022-07-22T13:45:48;11.73;;;5.22;;
54464;SDS011;40374;49.480;20.016;2022-07-22T13:48:16;10.48;;;4.82;;
54464;SDS011;40374;49.480;20.016;2022-07-22T13:50:47;8.63;;;4.75;;
54464;SDS011;40374;49.480;20.016;2022-07-22T13:53:15;11.35;;;4.65;;
54464;SDS011;40374;49.480;20.016;2022-07-22T13:55:43;10.13;;;4.88;;
54464;SDS011;40374;49.480;20.016;2022-07-22T13:58:10;9.77;;;5.10;;
54464;SDS011;40374;49.480;20.016;2022-07-22T14:00:39;10.98;;;5.13;;
54464;SDS011;40374;49.480;20.016;2022-07-22T14:03:07;12.25;;;5.22;;
54464;SDS011;40374;49.480;20.016;2022-07-22T14:05:35;9.13;;;4.40;;
54464;SDS011;40374;49.480;20.016;2022-07-22T14:08:02;8.50;;;5.18;;
54464;SDS011;40374;49.480;20.016;2022-07-22T14:10:30;7.30;;;4.60;;
54464;SDS011;40374;49.480;20.016;2022-07-22T14:12:57;8.30;;;4.75;;
54464;SDS011;40374;49.480;20.016;2022-07-22T14:15:25;5.47;;;4.25;;
54464;SDS011;40374;49.480;20.016;2022-07-22T14:17:52;15.85;;;4.82;;
54464;SDS011;40374;49.480;20.016;2022-07-22T14:20:20;9.60;;;4.93;;
54464;SDS011;40374;49.480;20.016;2022-07-22T14:22:51;7.75;;;4.60;;
54464;SDS011;40374;49.480;20.016;2022-07-22T14:25:18;12.50;;;4.13;;
54464;SDS011;40374;49.480;20.016;2022-07-22T14:27:47;17.95;;;4.57;;
54464;SDS011;40374;49.480;20.016;2022-07-22T14:30:35;9.50;;;4.22;;
54464;SDS011;40374;49.480;20.016;2022-07-22T14:33:04;12.27;;;3.83;;
54464;SDS011;40374;49.480;20.016;2022-07-22T14:35:31;13.70;;;4.05;;
54464;SDS011;40374;49.480;20.016;2022-07-22T14:38:01;16.67;;;4.45;;
54464;SDS011;40374;49.480;20.016;2022-07-22T14:40:29;12.00;;;4.53;;
54464;SDS011;40374;49.480;20.016;2022-07-22T14:42:56;9.43;;;4.30;;
54464;SDS011;40374;49.480;20.016;2022-07-22T14:45:44;11.18;;;5.07;;
54464;SDS011;40374;49.480;20.016;2022-07-22T14:48:12;44.88;;;5.38;;
54464;SDS011;40374;49.480;20.016;2022-07-22T14:50:40;13.88;;;4.20;;
54464;SDS011;40374;49.480;20.016;2022-07-22T14:53:09;12.20;;;5.28;;
54464;SDS011;40374;49.480;20.016;2022-07-22T14:55:37;17.23;;;5.60;;
54464;SDS011;40374;49.480;20.016;2022-07-22T14:58:05;10.98;;;5.80;;
54464;SDS011;40374;49.480;20.016;2022-07-22T15:00:33;39.53;;;8.30;;
54464;SDS011;40374;49.480;20.016;2022-07-22T15:03:00;16.73;;;8.75;;
54464;SDS011;40374;49.480;20.016;2022-07-22T15:05:28;34.33;;;14.63;;
54464;SDS011;40374;49.480;20.016;2022-07-22T15:07:56;32.25;;;13.75;;
54464;SDS011;40374;49.480;20.016;2022-07-22T15:10:23;27.70;;;13.75;;
54464;SDS011;40374;49.480;20.016;2022-07-22T15:12:51;27.20;;;14.15;;